Terminal Aerodrome Forecast
Issued by NWS

Home | Current Version | Previous Version | Graphics & Text | Print | Product List | Glossary On
Versions: 1 2 3 4 5 6 7 8 9 10 11 12 13 14 15 16 17 18 19 20 21 22 23 24
000
FTUS43 KOAX 252110 AAC
TAFCDR
TAF AMD
KCDR 252110Z 2521/2618 04015G25KT 6SM -SN BR OVC015
      TEMPO 2521/2524 2SM -SN OVC007
     FM260000 04013KT 2SM -SN OVC007
     FM260200 02010KT 4SM -SN OVC005
     FM260600 33005KT P6SM OVC003
     FM261500 31007KT P6SM BKN015=

USA.gov is the U.S. government's official web portal to all federal, state and local government web resources and services.